world map with LCA marked

LCA - Airport

This information may not be accurate or current and is not valid for navigation or flight planning. No warranty of fitness for any purpose is made or implied.

flag of Cyprus

Donate via PayPal

Additional information is available on the NEW Great Circle Mapper

Location
City:  Larnaca, Cyprus
ICAO / IATA:LCLK / LCA

Details
Type:Airport (Aerodrome, Airfield)
Use:Public/Civil
Latitude:34°52'30"N (34.875117)
Longitude:33°37'29"E (33.624850)
Datum:WGS 1984
Elevation:8 ft (2 m)
Runways:1
Longest:9776 × 148 ft (2980 × 45 m)

Time
Timezone:UTC+2 (DST+5)
Local Time:

Weather
METAR:LCLK  041400Z 05010KT CAVOK 19/08 Q1020 NOSIG
TAF:LCLK  041130Z 0412/0512 06017KT 9999 CAVOK= TAF LCPH 041130Z 0412/0512 15016KT CAVOK BECMG 0418/0421 08010KT BECMG 0506/0510 14018KT

Related Locations
Nearby:
Farthest:RVV: 11669 mi / 18780 km
Raivavae, Tubuai Islands, Austral Islands, PF

Find:

   beyond  
but within

Other Information
Maps:
Sources:

  


 


Great Circle Mapper   Great Circle Mapper
Great Circle Mapper FAQ   Great Circle Mapper FAQ
  Karl's Home Page
KLSē   KLSē Home
   GC on Facebook
Airlines of the World   Airlines of the World
Donate via PayPal


Copyright © 2004-2019, Karl L. Swartz. All rights reserved.
All trademarks mentioned herein belong to their respective owners.

Please see credits for attribution and copyright information.

Karl Swartz <karl@kls2.com>
  Powered by FreeBSD
Valid HTML 4.01!
Labeled with ICRA
hCard Microformat
Geo Microformat